sensor_id;sensor_type;location;lat;lon;timestamp;pressure;altitude;pressure_sealevel;temperature;humidity
4392;BME280;2210;51.938;8.488;2023-02-02T00:01:25;100699.50;;;4.81;100.00
4392;BME280;2210;51.938;8.488;2023-02-02T00:05:32;100710.81;;;4.78;100.00
4392;BME280;2210;51.938;8.488;2023-02-02T00:09:41;100696.75;;;4.81;100.00
4392;BME280;2210;51.938;8.488;2023-02-02T00:13:42;100703.91;;;4.82;100.00
4392;BME280;2210;51.938;8.488;2023-02-02T00:17:45;100710.16;;;4.76;100.00
4392;BME280;2210;51.938;8.488;2023-02-02T00:21:45;100714.03;;;4.66;100.00
4392;BME280;2210;51.938;8.488;2023-02-02T00:25:48;100717.16;;;4.63;100.00
4392;BME280;2210;51.938;8.488;2023-02-02T00:29:51;100708.69;;;4.58;100.00
4392;BME280;2210;51.938;8.488;2023-02-02T00:33:52;100713.31;;;4.58;100.00
4392;BME280;2210;51.938;8.488;2023-02-02T00:37:53;100712.84;;;4.54;100.00
4392;BME280;2210;51.938;8.488;2023-02-02T00:41:53;100711.66;;;4.42;100.00
4392;BME280;2210;51.938;8.488;2023-02-02T00:45:54;100724.84;;;4.38;100.00
4392;BME280;2210;51.938;8.488;2023-02-02T00:49:54;100722.72;;;4.33;100.00
4392;BME280;2210;51.938;8.488;2023-02-02T00:53:58;100725.16;;;4.28;100.00
4392;BME280;2210;51.938;8.488;2023-02-02T00:58:01;100727.88;;;4.28;100.00
4392;BME280;2210;51.938;8.488;2023-02-02T01:02:01;100739.94;;;4.19;100.00
4392;BME280;2210;51.938;8.488;2023-02-02T01:06:07;100734.28;;;4.20;100.00
4392;BME280;2210;51.938;8.488;2023-02-02T01:10:12;100733.28;;;4.07;100.00
4392;BME280;2210;51.938;8.488;2023-02-02T01:14:22;100741.19;;;4.01;100.00
4392;BME280;2210;51.938;8.488;2023-02-02T01:18:22;100737.72;;;4.08;100.00
4392;BME280;2210;51.938;8.488;2023-02-02T01:22:42;100743.34;;;4.06;100.00
4392;BME280;2210;51.938;8.488;2023-02-02T01:26:42;100748.34;;;4.02;100.00
4392;BME280;2210;51.938;8.488;2023-02-02T01:30:46;100741.66;;;4.05;100.00
4392;BME280;2210;51.938;8.488;2023-02-02T01:34:50;100750.97;;;3.96;100.00
4392;BME280;2210;51.938;8.488;2023-02-02T01:38:53;100750.97;;;3.96;100.00
4392;BME280;2210;51.938;8.488;2023-02-02T01:42:59;100749.66;;;3.92;100.00
4392;BME280;2210;51.938;8.488;2023-02-02T01:47:05;100761.59;;;3.91;100.00
4392;BME280;2210;51.938;8.488;2023-02-02T01:51:10;100761.88;;;3.81;100.00
4392;BME280;2210;51.938;8.488;2023-02-02T01:55:18;100764.31;;;3.76;100.00
4392;BME280;2210;51.938;8.488;2023-02-02T01:59:23;100765.63;;;3.80;100.00
4392;BME280;2210;51.938;8.488;2023-02-02T02:03:42;100771.09;;;3.80;100.00
4392;BME280;2210;51.938;8.488;2023-02-02T02:07:43;100781.31;;;3.63;100.00
4392;BME280;2210;51.938;8.488;2023-02-02T02:11:52;100780.00;;;3.59;100.00
4392;BME280;2210;51.938;8.488;2023-02-02T02:16:16;100788.38;;;3.57;100.00
4392;BME280;2210;51.938;8.488;2023-02-02T02:25:30;100781.59;;;3.53;100.00
4392;BME280;2210;51.938;8.488;2023-02-02T02:34:10;100788.81;;;3.61;100.00
4392;BME280;2210;51.938;8.488;2023-02-02T02:42:44;100787.44;;;3.80;100.00
4392;BME280;2210;51.938;8.488;2023-02-02T02:46:47;100797.63;;;3.86;100.00
4392;BME280;2210;51.938;8.488;2023-02-02T02:50:51;100791.06;;;3.95;100.00
4392;BME280;2210;51.938;8.488;2023-02-02T02:54:59;100795.38;;;4.04;100.00
4392;BME280;2210;51.938;8.488;2023-02-02T03:03:52;100803.88;;;4.10;100.00
4392;BME280;2210;51.938;8.488;2023-02-02T03:12:28;100800.28;;;4.09;100.00
4392;BME280;2210;51.938;8.488;2023-02-02T03:16:41;100803.66;;;4.11;100.00
4392;BME280;2210;51.938;8.488;2023-02-02T03:20:44;100804.69;;;4.10;100.00
4392;BME280;2210;51.938;8.488;2023-02-02T03:24:45;100795.69;;;4.10;100.00
4392;BME280;2210;51.938;8.488;2023-02-02T03:28:45;100811.19;;;4.09;100.00
4392;BME280;2210;51.938;8.488;2023-02-02T03:32:45;100801.41;;;4.15;100.00
4392;BME280;2210;51.938;8.488;2023-02-02T03:36:46;100805.19;;;4.14;100.00
4392;BME280;2210;51.938;8.488;2023-02-02T03:40:49;100803.66;;;4.11;100.00
4392;BME280;2210;51.938;8.488;2023-02-02T03:44:50;100819.09;;;4.19;100.00
4392;BME280;2210;51.938;8.488;2023-02-02T03:48:50;100818.34;;;4.25;100.00
4392;BME280;2210;51.938;8.488;2023-02-02T03:52:50;100817.75;;;4.15;100.00
4392;BME280;2210;51.938;8.488;2023-02-02T03:56:54;100821.25;;;4.24;100.00
4392;BME280;2210;51.938;8.488;2023-02-02T04:01:01;100816.81;;;4.37;100.00
4392;BME280;2210;51.938;8.488;2023-02-02T04:05:05;100820.78;;;4.35;100.00
4392;BME280;2210;51.938;8.488;2023-02-02T04:09:05;100826.16;;;4.28;100.00
4392;BME280;2210;51.938;8.488;2023-02-02T04:13:12;100828.31;;;4.33;100.00
4392;BME280;2210;51.938;8.488;2023-02-02T04:17:27;100830.88;;;4.34;100.00
4392;BME280;2210;51.938;8.488;2023-02-02T04:21:34;100826.63;;;4.47;100.00
4392;BME280;2210;51.938;8.488;2023-02-02T04:25:48;100835.44;;;4.49;100.00
4392;BME280;2210;51.938;8.488;2023-02-02T04:29:48;100827.94;;;4.51;100.00
4392;BME280;2210;51.938;8.488;2023-02-02T04:33:49;100831.50;;;4.51;100.00
4392;BME280;2210;51.938;8.488;2023-02-02T04:37:49;100838.06;;;4.57;100.00
4392;BME280;2210;51.938;8.488;2023-02-02T04:41:52;100826.41;;;4.63;100.00
4392;BME280;2210;51.938;8.488;2023-02-02T04:45:55;100833.66;;;4.71;100.00
4392;BME280;2210;51.938;8.488;2023-02-02T04:49:56;100837.09;;;4.80;100.00
4392;BME280;2210;51.938;8.488;2023-02-02T04:53:56;100834.38;;;4.80;100.00
4392;BME280;2210;51.938;8.488;2023-02-02T04:58:03;100841.34;;;4.82;100.00
4392;BME280;2210;51.938;8.488;2023-02-02T05:02:04;100840.50;;;4.82;100.00
4392;BME280;2210;51.938;8.488;2023-02-02T05:06:05;100837.97;;;4.80;100.00
4392;BME280;2210;51.938;8.488;2023-02-02T05:10:06;100844.47;;;4.79;100.00
4392;BME280;2210;51.938;8.488;2023-02-02T05:14:08;100845.28;;;4.80;100.00
4392;BME280;2210;51.938;8.488;2023-02-02T05:18:12;100841.34;;;4.82;100.00
4392;BME280;2210;51.938;8.488;2023-02-02T05:22:18;100835.88;;;4.82;100.00
4392;BME280;2210;51.938;8.488;2023-02-02T05:26:21;100838.59;;;4.82;100.00
4392;BME280;2210;51.938;8.488;2023-02-02T05:30:25;100839.19;;;4.78;100.00
4392;BME280;2210;51.938;8.488;2023-02-02T05:34:25;100842.28;;;4.75;100.00
4392;BME280;2210;51.938;8.488;2023-02-02T05:38:25;100842.28;;;4.75;100.00
4392;BME280;2210;51.938;8.488;2023-02-02T05:42:26;100844.19;;;4.74;100.00
4392;BME280;2210;51.938;8.488;2023-02-02T05:46:26;100847.75;;;4.75;100.00
4392;BME280;2210;51.938;8.488;2023-02-02T05:50:26;100841.66;;;4.72;100.00
4392;BME280;2210;51.938;8.488;2023-02-02T05:54:29;100846.63;;;4.69;100.00
4392;BME280;2210;51.938;8.488;2023-02-02T05:58:30;100851.47;;;4.67;100.00
4392;BME280;2210;51.938;8.488;2023-02-02T06:02:36;100865.03;;;4.60;100.00
4392;BME280;2210;51.938;8.488;2023-02-02T06:06:36;100876.31;;;4.57;100.00
4392;BME280;2210;51.938;8.488;2023-02-02T06:10:39;100881.69;;;4.50;100.00
4392;BME280;2210;51.938;8.488;2023-02-02T06:14:40;100886.69;;;4.47;100.00
4392;BME280;2210;51.938;8.488;2023-02-02T06:18:52;100881.97;;;4.41;100.00
4392;BME280;2210;51.938;8.488;2023-02-02T06:22:53;100883.75;;;4.33;100.00
4392;BME280;2210;51.938;8.488;2023-02-02T06:26:54;100879.22;;;4.26;100.00
4392;BME280;2210;51.938;8.488;2023-02-02T06:30:55;100883.38;;;4.21;100.00
4392;BME280;2210;51.938;8.488;2023-02-02T06:34:55;100889.59;;;4.15;100.00
4392;BME280;2210;51.938;8.488;2023-02-02T06:39:01;100899.19;;;4.11;100.00
4392;BME280;2210;51.938;8.488;2023-02-02T06:43:10;100908.56;;;4.09;100.00
4392;BME280;2210;51.938;8.488;2023-02-02T06:47:14;100908.28;;;4.03;100.00
4392;BME280;2210;51.938;8.488;2023-02-02T06:51:14;100916.47;;;4.03;100.00
4392;BME280;2210;51.938;8.488;2023-02-02T06:55:15;100920.41;;;4.01;100.00
4392;BME280;2210;51.938;8.488;2023-02-02T06:59:15;100923.63;;;4.04;100.00
4392;BME280;2210;51.938;8.488;2023-02-02T07:03:16;100920.41;;;4.01;100.00
4392;BME280;2210;51.938;8.488;2023-02-02T07:07:22;100928.09;;;3.97;100.00
4392;BME280;2210;51.938;8.488;2023-02-02T07:11:22;100938.19;;;3.97;100.00
4392;BME280;2210;51.938;8.488;2023-02-02T07:15:23;100940.47;;;3.85;100.00
4392;BME280;2210;51.938;8.488;2023-02-02T07:19:23;100937.44;;;3.80;100.00
4392;BME280;2210;51.938;8.488;2023-02-02T07:23:23;100938.84;;;3.76;100.00
4392;BME280;2210;51.938;8.488;2023-02-02T07:27:24;100939.53;;;3.78;100.00
4392;BME280;2210;51.938;8.488;2023-02-02T07:31:25;100944.31;;;3.76;100.00
4392;BME280;2210;51.938;8.488;2023-02-02T07:35:28;100950.13;;;3.72;100.00
4392;BME280;2210;51.938;8.488;2023-02-02T07:39:29;100949.28;;;3.72;100.00
4392;BME280;2210;51.938;8.488;2023-02-02T07:43:29;100957.78;;;3.77;100.00
4392;BME280;2210;51.938;8.488;2023-02-02T07:47:29;100957.94;;;3.76;100.00
4392;BME280;2210;51.938;8.488;2023-02-02T07:51:29;100963.25;;;3.77;100.00
4392;BME280;2210;51.938;8.488;2023-02-02T07:55:30;100971.56;;;3.76;100.00
4392;BME280;2210;51.938;8.488;2023-02-02T07:59:31;100971.75;;;3.74;100.00
4392;BME280;2210;51.938;8.488;2023-02-02T08:03:32;100972.25;;;3.78;100.00
4392;BME280;2210;51.938;8.488;2023-02-02T08:07:38;100977.72;;;3.78;100.00
4392;BME280;2210;51.938;8.488;2023-02-02T08:11:38;100985.34;;;3.82;100.00
4392;BME280;2210;51.938;8.488;2023-02-02T08:15:39;100985.19;;;3.84;100.00
4392;BME280;2210;51.938;8.488;2023-02-02T08:19:45;100990.63;;;3.84;100.00
4392;BME280;2210;51.938;8.488;2023-02-02T08:23:50;100983.59;;;3.90;100.00
4392;BME280;2210;51.938;8.488;2023-02-02T08:27:55;100990.25;;;3.87;100.00
4392;BME280;2210;51.938;8.488;2023-02-02T08:32:01;100988.44;;;3.79;100.00
4392;BME280;2210;51.938;8.488;2023-02-02T08:36:08;100996.09;;;3.84;100.00
4392;BME280;2210;51.938;8.488;2023-02-02T08:40:10;101000.81;;;3.90;100.00
4392;BME280;2210;51.938;8.488;2023-02-02T08:44:14;100997.41;;;3.88;100.00
4392;BME280;2210;51.938;8.488;2023-02-02T08:48:14;101008.97;;;3.90;100.00
4392;BME280;2210;51.938;8.488;2023-02-02T08:52:16;101011.34;;;3.93;100.00
4392;BME280;2210;51.938;8.488;2023-02-02T08:56:18;101027.06;;;3.91;100.00
4392;BME280;2210;51.938;8.488;2023-02-02T09:00:19;101030.25;;;3.95;100.00
4392;BME280;2210;51.938;8.488;2023-02-02T09:04:19;101030.16;;;4.11;100.00
4392;BME280;2210;51.938;8.488;2023-02-02T09:08:20;101040.94;;;4.04;100.00
4392;BME280;2210;51.938;8.488;2023-02-02T09:12:23;101046.41;;;4.04;100.00
4392;BME280;2210;51.938;8.488;2023-02-02T09:16:25;101051.50;;;4.08;100.00
4392;BME280;2210;51.938;8.488;2023-02-02T09:20:28;101052.44;;;4.15;100.00
4392;BME280;2210;51.938;8.488;2023-02-02T09:24:29;101057.25;;;4.13;100.00
4392;BME280;2210;51.938;8.488;2023-02-02T09:28:29;101059.88;;;4.06;100.00
4392;BME280;2210;51.938;8.488;2023-02-02T09:32:35;101062.41;;;4.08;100.00
4392;BME280;2210;51.938;8.488;2023-02-02T09:36:40;101069.06;;;4.05;100.00
4392;BME280;2210;51.938;8.488;2023-02-02T09:40:43;101077.56;;;4.10;100.00
4392;BME280;2210;51.938;8.488;2023-02-02T09:45:03;101079.56;;;4.16;100.00
4392;BME280;2210;51.938;8.488;2023-02-02T09:49:12;101084.50;;;4.21;100.00
4392;BME280;2210;51.938;8.488;2023-02-02T09:53:40;101081.06;;;4.19;100.00
4392;BME280;2210;51.938;8.488;2023-02-02T09:57:44;101095.91;;;4.25;100.00
4392;BME280;2210;51.938;8.488;2023-02-02T10:01:54;101100.13;;;4.27;100.00
4392;BME280;2210;51.938;8.488;2023-02-02T10:10:40;101116.69;;;4.26;100.00
4392;BME280;2210;51.938;8.488;2023-02-02T10:15:13;101111.91;;;4.28;100.00
4392;BME280;2210;51.938;8.488;2023-02-02T10:19:16;101111.53;;;4.31;100.00
4392;BME280;2210;51.938;8.488;2023-02-02T10:23:24;101122.63;;;4.29;100.00
4392;BME280;2210;51.938;8.488;2023-02-02T10:27:36;101124.34;;;4.30;100.00
4392;BME280;2210;51.938;8.488;2023-02-02T10:31:47;101128.41;;;4.34;100.00
4392;BME280;2210;51.938;8.488;2023-02-02T10:35:57;101133.50;;;4.37;100.00
4392;BME280;2210;51.938;8.488;2023-02-02T10:40:16;101139.09;;;4.44;100.00
4392;BME280;2210;51.938;8.488;2023-02-02T10:44:29;101132.78;;;4.44;100.00
4392;BME280;2210;51.938;8.488;2023-02-02T10:48:32;101138.38;;;4.50;100.00
4392;BME280;2210;51.938;8.488;2023-02-02T10:52:40;101141.63;;;4.46;100.00
4392;BME280;2210;51.938;8.488;2023-02-02T10:56:48;101144.19;;;4.47;100.00
4392;BME280;2210;51.938;8.488;2023-02-02T11:00:54;101140.59;;;4.47;100.00
4392;BME280;2210;51.938;8.488;2023-02-02T11:04:57;101145.50;;;4.51;100.00
4392;BME280;2210;51.938;8.488;2023-02-02T11:09:22;101153.16;;;4.56;100.00
4392;BME280;2210;51.938;8.488;2023-02-02T11:13:32;101155.34;;;4.61;100.00
4392;BME280;2210;51.938;8.488;2023-02-02T11:17:36;101156.38;;;4.60;100.00
4392;BME280;2210;51.938;8.488;2023-02-02T11:21:37;101153.63;;;4.60;100.00
4392;BME280;2210;51.938;8.488;2023-02-02T11:25:38;101152.09;;;4.65;100.00
4392;BME280;2210;51.938;8.488;2023-02-02T11:33:38;101157.63;;;4.72;100.00
4392;BME280;2210;51.938;8.488;2023-02-02T11:38:09;101154.81;;;4.65;100.00
4392;BME280;2210;51.938;8.488;2023-02-02T11:42:21;101164.94;;;4.80;100.00
4392;BME280;2210;51.938;8.488;2023-02-02T11:46:26;101177.06;;;4.77;100.00
4392;BME280;2210;51.938;8.488;2023-02-02T11:50:28;101168.41;;;4.73;100.00
4392;BME280;2210;51.938;8.488;2023-02-02T11:54:33;101179.69;;;4.70;100.00
4392;BME280;2210;51.938;8.488;2023-02-02T11:58:50;101176.59;;;4.73;100.00
4392;BME280;2210;51.938;8.488;2023-02-02T12:02:51;101174.16;;;4.79;100.00
4392;BME280;2210;51.938;8.488;2023-02-02T12:06:54;101176.03;;;4.78;100.00
4392;BME280;2210;51.938;8.488;2023-02-02T12:11:01;101171.72;;;4.84;100.00
4392;BME280;2210;51.938;8.488;2023-02-02T12:28:12;101184.09;;;4.95;100.00
4392;BME280;2210;51.938;8.488;2023-02-02T12:49:44;101175.31;;;4.84;100.00
4392;BME280;2210;51.938;8.488;2023-02-02T12:54:08;101179.72;;;4.85;100.00
4392;BME280;2210;51.938;8.488;2023-02-02T12:58:38;101182.84;;;4.82;100.00
4392;BME280;2210;51.938;8.488;2023-02-02T13:07:34;101181.13;;;4.81;100.00
4392;BME280;2210;51.938;8.488;2023-02-02T13:11:45;101175.47;;;4.83;100.00
4392;BME280;2210;51.938;8.488;2023-02-02T13:15:53;101180.09;;;4.82;100.00
4392;BME280;2210;51.938;8.488;2023-02-02T13:19:58;101176.34;;;4.83;100.00
4392;BME280;2210;51.938;8.488;2023-02-02T13:24:11;101179.25;;;4.82;100.00
4392;BME280;2210;51.938;8.488;2023-02-02T13:28:26;101180.94;;;4.83;100.00
4392;BME280;2210;51.938;8.488;2023-02-02T13:32:32;101182.34;;;4.79;100.00
4392;BME280;2210;51.938;8.488;2023-02-02T13:36:34;101191.03;;;4.82;100.00
4392;BME280;2210;51.938;8.488;2023-02-02T13:40:42;101188.84;;;4.78;100.00
4392;BME280;2210;51.938;8.488;2023-02-02T13:44:54;101196.38;;;4.76;100.00
4392;BME280;2210;51.938;8.488;2023-02-02T13:57:57;101190.53;;;4.79;100.00
4392;BME280;2210;51.938;8.488;2023-02-02T14:02:00;101196.38;;;4.76;100.00
4392;BME280;2210;51.938;8.488;2023-02-02T14:06:04;101193.44;;;4.77;100.00
4392;BME280;2210;51.938;8.488;2023-02-02T14:10:22;101196.13;;;4.85;100.00
4392;BME280;2210;51.938;8.488;2023-02-02T14:14:24;101201.78;;;4.84;100.00
4392;BME280;2210;51.938;8.488;2023-02-02T14:18:52;101200.75;;;4.85;100.00
4392;BME280;2210;51.938;8.488;2023-02-02T14:22:55;101213.91;;;4.81;100.00
4392;BME280;2210;51.938;8.488;2023-02-02T14:26:59;101218.53;;;4.81;100.00
4392;BME280;2210;51.938;8.488;2023-02-02T14:31:26;101212.25;;;4.80;100.00
4392;BME280;2210;51.938;8.488;2023-02-02T14:35:54;101220.25;;;4.82;100.00
4392;BME280;2210;51.938;8.488;2023-02-02T14:44:20;101212.94;;;4.74;100.00
4392;BME280;2210;51.938;8.488;2023-02-02T14:48:24;101221.84;;;4.68;100.00
4392;BME280;2210;51.938;8.488;2023-02-02T14:52:27;101226.16;;;4.62;100.00
4392;BME280;2210;51.938;8.488;2023-02-02T14:56:48;101238.13;;;4.61;100.00
4392;BME280;2210;51.938;8.488;2023-02-02T15:01:40;101238.13;;;4.61;100.00
4392;BME280;2210;51.938;8.488;2023-02-02T15:09:35;101249.03;;;4.61;100.00
4392;BME280;2210;51.938;8.488;2023-02-02T15:13:36;101241.53;;;4.63;100.00
4392;BME280;2210;51.938;8.488;2023-02-02T15:17:44;101253.84;;;4.59;100.00
4392;BME280;2210;51.938;8.488;2023-02-02T15:26:18;101265.78;;;4.58;100.00
4392;BME280;2210;51.938;8.488;2023-02-02T15:30:21;101273.81;;;4.60;100.00
4392;BME280;2210;51.938;8.488;2023-02-02T15:34:45;101260.00;;;4.53;100.00
4392;BME280;2210;51.938;8.488;2023-02-02T15:39:30;101263.81;;;4.52;100.00
4392;BME280;2210;51.938;8.488;2023-02-02T15:43:35;101262.59;;;4.54;100.00
4392;BME280;2210;51.938;8.488;2023-02-02T16:10:45;101282.97;;;4.44;100.00
4392;BME280;2210;51.938;8.488;2023-02-02T16:15:15;101284.31;;;4.48;100.00
4392;BME280;2210;51.938;8.488;2023-02-02T16:29:01;101289.59;;;4.49;100.00
4392;BME280;2210;51.938;8.488;2023-02-02T16:43:05;101285.03;;;4.33;100.00
4392;BME280;2210;51.938;8.488;2023-02-02T16:47:07;101289.53;;;4.26;100.00
4392;BME280;2210;51.938;8.488;2023-02-02T17:00:36;101302.13;;;4.27;100.00
4392;BME280;2210;51.938;8.488;2023-02-02T17:04:36;101297.38;;;4.21;100.00
4392;BME280;2210;51.938;8.488;2023-02-02T17:08:45;101302.34;;;4.17;100.00
4392;BME280;2210;51.938;8.488;2023-02-02T17:12:53;101299.41;;;4.19;100.00
4392;BME280;2210;51.938;8.488;2023-02-02T17:16:53;101300.47;;;4.18;100.00
4392;BME280;2210;51.938;8.488;2023-02-02T17:20:57;101307.63;;;4.11;100.00
4392;BME280;2210;51.938;8.488;2023-02-02T17:25:03;101304.56;;;4.05;100.00
4392;BME280;2210;51.938;8.488;2023-02-02T17:29:22;101303.75;;;4.05;100.00
4392;BME280;2210;51.938;8.488;2023-02-02T17:33:23;101307.63;;;4.11;100.00
4392;BME280;2210;51.938;8.488;2023-02-02T17:37:23;101307.63;;;4.11;100.00
4392;BME280;2210;51.938;8.488;2023-02-02T17:41:30;101311.56;;;4.08;100.00
4392;BME280;2210;51.938;8.488;2023-02-02T17:45:39;101306.97;;;4.09;100.00
4392;BME280;2210;51.938;8.488;2023-02-02T17:49:43;101298.47;;;4.03;100.00
4392;BME280;2210;51.938;8.488;2023-02-02T17:53:49;101304.25;;;4.09;100.00
4392;BME280;2210;51.938;8.488;2023-02-02T17:57:52;101298.09;;;4.07;100.00
4392;BME280;2210;51.938;8.488;2023-02-02T18:01:55;101309.03;;;4.07;100.00
4392;BME280;2210;51.938;8.488;2023-02-02T18:05:56;101299.81;;;4.08;100.00
4392;BME280;2210;51.938;8.488;2023-02-02T18:10:14;101306.81;;;4.10;100.00
4392;BME280;2210;51.938;8.488;2023-02-02T18:14:15;101303.91;;;4.12;100.00
4392;BME280;2210;51.938;8.488;2023-02-02T18:18:15;101294.69;;;4.13;100.00
4392;BME280;2210;51.938;8.488;2023-02-02T18:22:22;101293.31;;;4.17;100.00
4392;BME280;2210;51.938;8.488;2023-02-02T18:26:29;101287.34;;;4.13;100.00
4392;BME280;2210;51.938;8.488;2023-02-02T18:30:38;101287.81;;;4.25;100.00
4392;BME280;2210;51.938;8.488;2023-02-02T18:34:39;101280.13;;;4.20;100.00
4392;BME280;2210;51.938;8.488;2023-02-02T18:38:47;101279.28;;;4.20;100.00
4392;BME280;2210;51.938;8.488;2023-02-02T18:42:47;101272.81;;;4.21;100.00
4392;BME280;2210;51.938;8.488;2023-02-02T18:46:54;101275.19;;;4.24;100.00
4392;BME280;2210;51.938;8.488;2023-02-02T18:50:57;101265.78;;;4.27;100.00
4392;BME280;2210;51.938;8.488;2023-02-02T18:55:01;101266.63;;;4.35;100.00
4392;BME280;2210;51.938;8.488;2023-02-02T18:59:01;101266.72;;;4.42;100.00
4392;BME280;2210;51.938;8.488;2023-02-02T19:03:06;101268.06;;;4.46;100.00
4392;BME280;2210;51.938;8.488;2023-02-02T19:07:12;101271.13;;;4.51;100.00
4392;BME280;2210;51.938;8.488;2023-02-02T19:11:37;101268.13;;;4.69;100.00
4392;BME280;2210;51.938;8.488;2023-02-02T19:15:53;101253.22;;;4.80;100.00
4392;BME280;2210;51.938;8.488;2023-02-02T19:19:58;101258.06;;;4.93;100.00
4392;BME280;2210;51.938;8.488;2023-02-02T19:24:08;101256.75;;;5.27;100.00
4392;BME280;2210;51.938;8.488;2023-02-02T19:28:21;101255.59;;;5.60;100.00
4392;BME280;2210;51.938;8.488;2023-02-02T19:41:35;101260.56;;;6.24;100.00
4392;BME280;2210;51.938;8.488;2023-02-02T19:50:37;101249.31;;;6.34;100.00
4392;BME280;2210;51.938;8.488;2023-02-02T19:54:46;101253.56;;;6.36;100.00
4392;BME280;2210;51.938;8.488;2023-02-02T19:58:51;101251.06;;;6.41;100.00
4392;BME280;2210;51.938;8.488;2023-02-02T20:07:19;101253.97;;;6.55;100.00
4392;BME280;2210;51.938;8.488;2023-02-02T20:11:40;101246.16;;;6.52;100.00
4392;BME280;2210;51.938;8.488;2023-02-02T20:15:41;101247.84;;;6.53;100.00
4392;BME280;2210;51.938;8.488;2023-02-02T20:19:43;101246.03;;;6.60;100.00
4392;BME280;2210;51.938;8.488;2023-02-02T20:23:48;101243.97;;;6.62;100.00
4392;BME280;2210;51.938;8.488;2023-02-02T20:27:54;101236.78;;;6.61;100.00
4392;BME280;2210;51.938;8.488;2023-02-02T20:32:03;101241.84;;;6.64;100.00
4392;BME280;2210;51.938;8.488;2023-02-02T20:36:38;101248.84;;;6.67;100.00
4392;BME280;2210;51.938;8.488;2023-02-02T20:40:36;101248.84;;;6.67;100.00
4392;BME280;2210;51.938;8.488;2023-02-02T20:44:40;101253.56;;;6.73;100.00
4392;BME280;2210;51.938;8.488;2023-02-02T20:48:40;101253.94;;;6.70;100.00
4392;BME280;2210;51.938;8.488;2023-02-02T20:52:44;101253.72;;;6.71;100.00
4392;BME280;2210;51.938;8.488;2023-02-02T20:56:50;101256.09;;;6.74;100.00
4392;BME280;2210;51.938;8.488;2023-02-02T21:00:51;101245.78;;;6.77;100.00
4392;BME280;2210;51.938;8.488;2023-02-02T21:04:52;101243.72;;;6.79;100.00
4392;BME280;2210;51.938;8.488;2023-02-02T21:08:56;101247.28;;;6.79;100.00
4392;BME280;2210;51.938;8.488;2023-02-02T21:13:02;101246.53;;;6.85;100.00
4392;BME280;2210;51.938;8.488;2023-02-02T21:17:02;101241.88;;;6.86;100.00
4392;BME280;2210;51.938;8.488;2023-02-02T21:21:09;101240.84;;;6.87;100.00
4392;BME280;2210;51.938;8.488;2023-02-02T21:25:15;101249.06;;;6.87;100.00
4392;BME280;2210;51.938;8.488;2023-02-02T21:29:21;101254.53;;;6.87;100.00
4392;BME280;2210;51.938;8.488;2023-02-02T21:33:22;101258.78;;;6.89;100.00
4392;BME280;2210;51.938;8.488;2023-02-02T21:37:23;101265.13;;;6.90;100.00
4392;BME280;2210;51.938;8.488;2023-02-02T21:41:24;101261.34;;;6.91;100.00
4392;BME280;2210;51.938;8.488;2023-02-02T21:45:36;101262.16;;;6.91;100.00
4392;BME280;2210;51.938;8.488;2023-02-02T21:49:40;101265.78;;;6.92;100.00
4392;BME280;2210;51.938;8.488;2023-02-02T21:53:40;101254.41;;;6.95;100.00
4392;BME280;2210;51.938;8.488;2023-02-02T21:57:43;101251.28;;;6.98;100.00
4392;BME280;2210;51.938;8.488;2023-02-02T22:01:45;101254.00;;;6.98;100.00
4392;BME280;2210;51.938;8.488;2023-02-02T22:10:35;101250.03;;;7.01;100.00
4392;BME280;2210;51.938;8.488;2023-02-02T22:14:44;101247.75;;;7.04;100.00
4392;BME280;2210;51.938;8.488;2023-02-02T22:18:47;101246.72;;;7.05;100.00
4392;BME280;2210;51.938;8.488;2023-02-02T22:22:57;101242.91;;;7.06;100.00
4392;BME280;2210;51.938;8.488;2023-02-02T22:26:57;101240.16;;;7.06;100.00
4392;BME280;2210;51.938;8.488;2023-02-02T22:31:01;101241.03;;;7.07;100.00
4392;BME280;2210;51.938;8.488;2023-02-02T22:35:01;101260.88;;;7.09;100.00
4392;BME280;2210;51.938;8.488;2023-02-02T22:39:10;101244.22;;;7.11;100.00
4392;BME280;2210;51.938;8.488;2023-02-02T22:43:11;101239.41;;;7.13;100.00
4392;BME280;2210;51.938;8.488;2023-02-02T22:47:15;101199.97;;;7.14;100.00
4392;BME280;2210;51.938;8.488;2023-02-02T22:51:15;101201.63;;;7.15;100.00
4392;BME280;2210;51.938;8.488;2023-02-02T22:55:16;101193.25;;;7.16;100.00
4392;BME280;2210;51.938;8.488;2023-02-02T22:59:26;101202.50;;;7.15;100.00
4392;BME280;2210;51.938;8.488;2023-02-02T23:03:26;101210.13;;;7.20;100.00
4392;BME280;2210;51.938;8.488;2023-02-02T23:07:26;101219.22;;;7.20;100.00
4392;BME280;2210;51.938;8.488;2023-02-02T23:11:27;101236.50;;;7.21;100.00
4392;BME280;2210;51.938;8.488;2023-02-02T23:15:33;101235.91;;;7.25;100.00
4392;BME280;2210;51.938;8.488;2023-02-02T23:19:37;101233.84;;;7.28;100.00
4392;BME280;2210;51.938;8.488;2023-02-02T23:23:37;101230.06;;;7.29;100.00
4392;BME280;2210;51.938;8.488;2023-02-02T23:27:38;101218.25;;;7.35;100.00
4392;BME280;2210;51.938;8.488;2023-02-02T23:31:38;101192.75;;;7.34;100.00
4392;BME280;2210;51.938;8.488;2023-02-02T23:35:38;101191.03;;;7.33;100.00
4392;BME280;2210;51.938;8.488;2023-02-02T23:39:41;101200.09;;;7.34;100.00
4392;BME280;2210;51.938;8.488;2023-02-02T23:43:42;101185.13;;;7.36;100.00
4392;BME280;2210;51.938;8.488;2023-02-02T23:47:45;101172.28;;;7.37;100.00
4392;BME280;2210;51.938;8.488;2023-02-02T23:51:45;101163.19;;;7.36;100.00
4392;BME280;2210;51.938;8.488;2023-02-02T23:55:46;101160.03;;;7.33;100.00
4392;BME280;2210;51.938;8.488;2023-02-02T23:59:46;101163.84;;;7.38;100.00
